TCA7378 TGPY-MDLR
Flight info
| Callsign | TCA7378 |
|---|---|
| Flight time | N/A |
| Altitude | 36000 |
| Route | GND DCT KIKER DCT DUNOT DUNOT2D |
| Aircraft | B738/M-SDE2E3FGHIRWXY/LB1 |
Departure
| Time | N/A |
|---|---|
| Airport | Maurice Bishop International Airport (TGPY) |
Arrival
| Time | 2026-04-15 22:00 |
|---|---|
| Airport | Casa De Campo International Airport (MDLR) |
| Time | Latitude | Longitude | Altitude | Speed | Heading |
|---|---|---|---|---|---|
| 2026-04-15 21:09 | 15.16727 | -65.38167 | 31945 ft | 438 kts | 304° |
| 2026-04-15 21:09 | 15.20598 | -65.43039 | 31942 ft | 438 kts | 304° |
| 2026-04-15 21:10 | 15.24467 | -65.47905 | 31938 ft | 437 kts | 304° |
| 2026-04-15 21:10 | 15.28320 | -65.52748 | 31935 ft | 435 kts | 304° |
| 2026-04-15 21:11 | 15.32133 | -65.57546 | 31945 ft | 433 kts | 304° |
| 2026-04-15 21:11 | 15.35949 | -65.62349 | 31932 ft | 431 kts | 304° |
| 2026-04-15 21:12 | 15.39750 | -65.67138 | 31933 ft | 429 kts | 304° |
| 2026-04-15 21:12 | 15.43532 | -65.71907 | 31947 ft | 428 kts | 304° |
| 2026-04-15 21:13 | 15.47280 | -65.76634 | 31946 ft | 427 kts | 304° |
| 2026-04-15 21:13 | 15.51047 | -65.81391 | 31941 ft | 426 kts | 304° |
| 2026-04-15 21:14 | 15.54809 | -65.86144 | 31949 ft | 427 kts | 304° |
| 2026-04-15 21:14 | 15.58577 | -65.90907 | 31949 ft | 427 kts | 304° |
| 2026-04-15 21:15 | 15.62329 | -65.95647 | 31946 ft | 429 kts | 304° |
| 2026-04-15 21:15 | 15.66117 | -66.00439 | 31946 ft | 430 kts | 304° |
| 2026-04-15 21:16 | 15.69912 | -66.05246 | 31946 ft | 431 kts | 304° |
| 2026-04-15 21:16 | 15.73715 | -66.10066 | 31946 ft | 432 kts | 304° |
| 2026-04-15 21:17 | 15.77493 | -66.14855 | 31946 ft | 432 kts | 304° |
| 2026-04-15 21:17 | 15.81297 | -66.19682 | 31949 ft | 432 kts | 304° |
| 2026-04-15 21:18 | 15.85102 | -66.24513 | 31929 ft | 432 kts | 304° |
| 2026-04-15 21:18 | 15.88905 | -66.29341 | 31936 ft | 432 kts | 304° |
| 2026-04-15 21:19 | 15.92675 | -66.34130 | 31933 ft | 430 kts | 304° |
| 2026-04-15 21:19 | 15.96456 | -66.38940 | 31946 ft | 430 kts | 304° |
| 2026-04-15 21:20 | 16.00232 | -66.43751 | 31947 ft | 429 kts | 304° |
| 2026-04-15 21:20 | 16.04006 | -66.48561 | 31944 ft | 429 kts | 304° |
| 2026-04-15 21:21 | 16.07753 | -66.53339 | 31945 ft | 429 kts | 304° |
| 2026-04-15 21:21 | 16.11523 | -66.58144 | 31945 ft | 429 kts | 304° |
| 2026-04-15 21:22 | 16.15284 | -66.62945 | 31954 ft | 428 kts | 304° |
| 2026-04-15 21:22 | 16.19038 | -66.67739 | 31952 ft | 427 kts | 304° |
| 2026-04-15 21:23 | 16.22765 | -66.72503 | 31957 ft | 427 kts | 304° |
| 2026-04-15 21:23 | 16.26518 | -66.77301 | 31954 ft | 427 kts | 304° |
| 2026-04-15 21:24 | 16.30268 | -66.82100 | 31955 ft | 428 kts | 304° |
| 2026-04-15 21:24 | 16.34023 | -66.86907 | 31954 ft | 428 kts | 304° |
| 2026-04-15 21:25 | 16.37774 | -66.91714 | 31950 ft | 428 kts | 304° |
| 2026-04-15 21:25 | 16.41498 | -66.96490 | 31954 ft | 427 kts | 304° |
| 2026-04-15 21:26 | 16.45243 | -67.01295 | 31955 ft | 428 kts | 304° |
| 2026-04-15 21:26 | 16.48990 | -67.06108 | 31955 ft | 428 kts | 304° |
| 2026-04-15 21:27 | 16.52735 | -67.10919 | 31953 ft | 427 kts | 304° |
| 2026-04-15 21:27 | 16.56455 | -67.15700 | 31957 ft | 428 kts | 304° |
| 2026-04-15 21:28 | 16.60205 | -67.20523 | 31951 ft | 428 kts | 304° |
| 2026-04-15 21:28 | 16.63954 | -67.25355 | 31954 ft | 429 kts | 304° |
| 2026-04-15 21:29 | 16.67686 | -67.30156 | 31955 ft | 429 kts | 304° |
| 2026-04-15 21:29 | 16.71433 | -67.34991 | 31953 ft | 429 kts | 304° |
| 2026-04-15 21:30 | 16.75187 | -67.39836 | 31950 ft | 429 kts | 304° |
| 2026-04-15 21:30 | 16.78939 | -67.44681 | 31954 ft | 429 kts | 304° |
| 2026-04-15 21:31 | 16.84542 | -67.51919 | 31948 ft | 429 kts | 304° |
| 2026-04-15 21:32 | 16.90160 | -67.59187 | 31951 ft | 428 kts | 304° |
| 2026-04-15 21:32 | 16.93899 | -67.64028 | 31955 ft | 428 kts | 304° |
| 2026-04-15 21:33 | 16.97631 | -67.68865 | 31951 ft | 428 kts | 304° |
| 2026-04-15 21:33 | 17.01365 | -67.73705 | 31957 ft | 428 kts | 304° |
| 2026-04-15 21:34 | 17.05072 | -67.78514 | 31955 ft | 428 kts | 305° |
| 2026-04-15 21:34 | 17.08805 | -67.83360 | 31952 ft | 428 kts | 305° |
| 2026-04-15 21:35 | 17.12538 | -67.88209 | 31960 ft | 428 kts | 305° |
| 2026-04-15 21:35 | 17.16167 | -67.92920 | 31956 ft | 404 kts | 304° |
| 2026-04-15 21:36 | 17.19614 | -67.97396 | 31610 ft | 390 kts | 305° |
| 2026-04-15 21:36 | 17.21300 | -67.99590 | 31253 ft | 385 kts | 305° |
| 2026-04-15 21:36 | 17.22970 | -68.01769 | 30883 ft | 382 kts | 305° |
| 2026-04-15 21:36 | 17.24626 | -68.03928 | 30494 ft | 380 kts | 306° |
| 2026-04-15 21:37 | 17.26272 | -68.06076 | 30120 ft | 377 kts | 306° |
| 2026-04-15 21:37 | 17.27909 | -68.08209 | 29727 ft | 375 kts | 306° |
| 2026-04-15 21:37 | 17.29533 | -68.10332 | 29337 ft | 372 kts | 306° |
| 2026-04-15 21:37 | 17.31126 | -68.12411 | 28941 ft | 370 kts | 306° |
| 2026-04-15 21:38 | 17.32731 | -68.14506 | 28551 ft | 368 kts | 307° |
| 2026-04-15 21:38 | 17.34325 | -68.16587 | 28154 ft | 365 kts | 307° |
| 2026-04-15 21:38 | 17.35909 | -68.18658 | 27769 ft | 363 kts | 307° |
| 2026-04-15 21:38 | 17.37480 | -68.20710 | 27391 ft | 361 kts | 307° |
| 2026-04-15 21:39 | 17.39048 | -68.22756 | 27007 ft | 359 kts | 307° |
| 2026-04-15 21:39 | 17.40605 | -68.24789 | 26626 ft | 356 kts | 307° |
| 2026-04-15 21:39 | 17.42151 | -68.26808 | 26252 ft | 354 kts | 307° |
| 2026-04-15 21:39 | 17.43686 | -68.28814 | 25880 ft | 352 kts | 307° |
| 2026-04-15 21:40 | 17.45190 | -68.30782 | 25517 ft | 350 kts | 307° |
| 2026-04-15 21:40 | 17.46709 | -68.32766 | 25148 ft | 348 kts | 307° |
| 2026-04-15 21:40 | 17.48217 | -68.34739 | 24782 ft | 346 kts | 307° |
| 2026-04-15 21:40 | 17.49710 | -68.36695 | 24421 ft | 344 kts | 307° |
| 2026-04-15 21:41 | 17.51203 | -68.38650 | 23965 ft | 344 kts | 307° |
| 2026-04-15 21:41 | 17.52687 | -68.40591 | 23724 ft | 339 kts | 307° |
| 2026-04-15 21:41 | 17.54164 | -68.42527 | 23339 ft | 340 kts | 307° |
| 2026-04-15 21:41 | 17.55616 | -68.44430 | 22998 ft | 339 kts | 307° |
| 2026-04-15 21:42 | 17.57098 | -68.46377 | 22659 ft | 345 kts | 307° |
| 2026-04-15 21:42 | 17.58618 | -68.48372 | 22297 ft | 354 kts | 308° |
| 2026-04-15 21:42 | 17.60158 | -68.50392 | 21914 ft | 354 kts | 308° |
| 2026-04-15 21:42 | 17.61694 | -68.52404 | 21530 ft | 353 kts | 308° |
| 2026-04-15 21:43 | 17.63222 | -68.54408 | 21146 ft | 351 kts | 308° |
| 2026-04-15 21:43 | 17.64743 | -68.56402 | 20781 ft | 349 kts | 308° |
| 2026-04-15 21:43 | 17.66251 | -68.58384 | 20415 ft | 347 kts | 308° |
| 2026-04-15 21:43 | 17.67752 | -68.60359 | 20053 ft | 345 kts | 308° |
| 2026-04-15 21:44 | 17.69226 | -68.62296 | 19696 ft | 344 kts | 308° |
| 2026-04-15 21:44 | 17.70716 | -68.64254 | 19331 ft | 343 kts | 308° |
| 2026-04-15 21:44 | 17.72198 | -68.66202 | 18978 ft | 341 kts | 308° |
| 2026-04-15 21:44 | 17.73674 | -68.68143 | 18622 ft | 340 kts | 308° |
| 2026-04-15 21:45 | 17.75143 | -68.70077 | 18260 ft | 338 kts | 308° |
| 2026-04-15 21:45 | 17.76604 | -68.72001 | 17907 ft | 336 kts | 308° |
| 2026-04-15 21:45 | 17.78057 | -68.73915 | 17561 ft | 335 kts | 308° |
| 2026-04-15 21:45 | 17.79505 | -68.75820 | 17204 ft | 333 kts | 308° |
| 2026-04-15 21:46 | 17.80946 | -68.77719 | 16855 ft | 332 kts | 308° |
| 2026-04-15 21:46 | 17.82363 | -68.79583 | 16513 ft | 330 kts | 308° |
| 2026-04-15 21:46 | 17.83822 | -68.81437 | 16159 ft | 329 kts | 315° |
| 2026-04-15 21:46 | 17.85717 | -68.82754 | 15815 ft | 328 kts | 337° |
| 2026-04-15 21:47 | 17.87918 | -68.83328 | 15503 ft | 328 kts | 350° |
| 2026-04-15 21:47 | 17.90181 | -68.83647 | 15165 ft | 329 kts | 352° |
| 2026-04-15 21:47 | 17.92454 | -68.83933 | 14822 ft | 329 kts | 352° |
| 2026-04-15 21:47 | 17.94725 | -68.84223 | 14480 ft | 328 kts | 352° |
| 2026-04-15 21:48 | 17.96986 | -68.84522 | 14138 ft | 327 kts | 352° |
| 2026-04-15 21:48 | 17.99235 | -68.84826 | 13801 ft | 325 kts | 352° |
| 2026-04-15 21:48 | 18.01442 | -68.85133 | 13488 ft | 323 kts | 352° |
| 2026-04-15 21:48 | 18.03669 | -68.85445 | 13165 ft | 322 kts | 352° |
| 2026-04-15 21:49 | 18.05888 | -68.85757 | 12839 ft | 321 kts | 352° |
| 2026-04-15 21:49 | 18.08097 | -68.86067 | 12509 ft | 320 kts | 352° |
| 2026-04-15 21:49 | 18.10295 | -68.86394 | 12183 ft | 319 kts | 349° |
| 2026-04-15 21:49 | 18.12468 | -68.86829 | 11859 ft | 317 kts | 348° |
| 2026-04-15 21:50 | 18.14627 | -68.87302 | 11532 ft | 317 kts | 347° |
| 2026-04-15 21:50 | 18.16744 | -68.87765 | 11217 ft | 314 kts | 348° |
| 2026-04-15 21:50 | 18.18877 | -68.88231 | 10881 ft | 313 kts | 349° |
| 2026-04-15 21:50 | 18.21009 | -68.88675 | 10559 ft | 311 kts | 348° |
| 2026-04-15 21:51 | 18.23125 | -68.89141 | 10238 ft | 310 kts | 348° |
| 2026-04-15 21:51 | 18.25231 | -68.89601 | 9917 ft | 309 kts | 348° |
| 2026-04-15 21:51 | 18.27322 | -68.90059 | 9605 ft | 304 kts | 347° |
| 2026-04-15 21:51 | 18.29388 | -68.90516 | 9268 ft | 301 kts | 348° |
| 2026-04-15 21:52 | 18.31416 | -68.90941 | 8985 ft | 292 kts | 348° |
| 2026-04-15 21:52 | 18.33336 | -68.91345 | 8704 ft | 279 kts | 348° |
| 2026-04-15 21:52 | 18.35202 | -68.91740 | 8395 ft | 268 kts | 348° |
| 2026-04-15 21:52 | 18.36954 | -68.92270 | 8097 ft | 259 kts | 329° |
| 2026-04-15 21:53 | 18.38221 | -68.93535 | 7815 ft | 251 kts | 300° |
| 2026-04-15 21:53 | 18.38874 | -68.95192 | 7601 ft | 241 kts | 281° |
| 2026-04-15 21:53 | 18.39050 | -68.96905 | 7558 ft | 228 kts | 274° |
| 2026-04-15 21:53 | 18.39249 | -68.98504 | 7444 ft | 214 kts | 279° |
| 2026-04-15 21:54 | 18.39525 | -69.00008 | 7217 ft | 207 kts | 276° |
| 2026-04-15 21:54 | 18.39645 | -69.01483 | 6868 ft | 205 kts | 279° |
| 2026-04-15 21:54 | 18.39862 | -69.03000 | 6297 ft | 215 kts | 277° |
| 2026-04-15 21:54 | 18.40056 | -69.04591 | 5699 ft | 225 kts | 278° |
| 2026-04-15 21:55 | 18.40284 | -69.06260 | 5088 ft | 235 kts | 277° |
| 2026-04-15 21:55 | 18.40596 | -69.07961 | 4437 ft | 241 kts | 294° |
| 2026-04-15 21:55 | 18.41803 | -69.09132 | 3850 ft | 242 kts | 343° |
| 2026-04-15 21:55 | 18.43441 | -69.09457 | 3247 ft | 243 kts | 1° |
| 2026-04-15 21:56 | 18.45111 | -69.09202 | 2608 ft | 245 kts | 25° |
| 2026-04-15 21:56 | 18.46313 | -69.08049 | 2351 ft | 228 kts | 66° |
| 2026-04-15 21:56 | 18.46404 | -69.06513 | 2266 ft | 206 kts | 103° |
| 2026-04-15 21:56 | 18.46518 | -69.05105 | 2087 ft | 195 kts | 57° |
| 2026-04-15 21:57 | 18.47221 | -69.03976 | 2031 ft | 182 kts | 72° |
| 2026-04-15 21:57 | 18.47142 | -69.02781 | 1996 ft | 160 kts | 124° |
| 2026-04-15 21:57 | 18.46459 | -69.01851 | 1953 ft | 163 kts | 116° |
| 2026-04-15 21:57 | 18.46298 | -69.00702 | 1734 ft | 159 kts | 90° |
| 2026-04-15 21:58 | 18.46241 | -68.99545 | 1571 ft | 160 kts | 97° |
| 2026-04-15 21:58 | 18.46089 | -68.98373 | 1327 ft | 160 kts | 97° |
| 2026-04-15 21:58 | 18.45967 | -68.97228 | 1132 ft | 155 kts | 97° |
| 2026-04-15 21:58 | 18.45830 | -68.96102 | 932 ft | 156 kts | 97° |
| 2026-04-15 21:59 | 18.45694 | -68.94976 | 775 ft | 157 kts | 98° |
| 2026-04-15 21:59 | 18.45551 | -68.93828 | 550 ft | 159 kts | 96° |
| 2026-04-15 21:59 | 18.45430 | -68.92653 | 282 ft | 163 kts | 97° |
| 2026-04-15 21:59 | 18.45293 | -68.91522 | 220 ft | 139 kts | 97° |
| 2026-04-15 22:00 | 18.45218 | -68.90915 | 221 ft | 49 kts | 103° |
| 2026-04-15 22:00 | 18.45229 | -68.90848 | 222 ft | 13 kts | 277° |
| 2026-04-15 22:00 | 18.45231 | -68.90982 | 223 ft | 22 kts | 274° |
| 2026-04-15 22:00 | 18.45231 | -68.91126 | 224 ft | 18 kts | 231° |
| 2026-04-15 22:01 | 18.45119 | -68.91152 | 220 ft | 17 kts | 187° |
| 2026-04-15 22:01 | 18.45009 | -68.91186 | 219 ft | 16 kts | 208° |
| 2026-04-15 22:01 | 18.44927 | -68.91203 | 219 ft | 0 kts | 186° |